Time;durP1;ratioP1;P1;durP2;ratioP2;P2;SDS_P1;SDS_P2;PMS_P1;PMS_P2;Temp;Humidity;BMP_temperature;BMP_pressure;BME280_temperature;BME280_humidity;BME280_pressure;Samples;Min_cycle;Max_cycle;Signal;HPM_P1;HPM_P2
2022/12/26 00:01:27;;;;;;;10.30;6.00;;;2.30;99.90;;;;;;5075397;28;20543;-52
2022/12/26 00:03:55;;;;;;;5.23;3.10;;;2.30;99.90;;;;;;5075746;28;20450;-51
2022/12/26 00:06:25;;;;;;;4.10;2.90;;;2.70;99.90;;;;;;5076050;28;20538;-51
2022/12/26 00:08:52;;;;;;;2.53;1.73;;;2.90;99.90;;;;;;5076426;28;20469;-49
2022/12/26 00:11:20;;;;;;;1.47;1.23;;;3.10;99.90;;;;;;5075498;28;20553;-50
2022/12/26 00:13:47;;;;;;;2.80;1.77;;;3.10;99.90;;;;;;5075560;28;20532;-50
2022/12/26 00:16:16;;;;;;;2.57;2.37;;;3.10;99.90;;;;;;5077073;28;20505;-50
2022/12/26 00:18:43;;;;;;;3.80;1.73;;;2.90;99.90;;;;;;5076651;28;20532;-51
2022/12/26 00:21:13;;;;;;;2.20;1.93;;;2.80;99.90;;;;;;5076594;28;21065;-50
2022/12/26 00:23:41;;;;;;;2.67;2.47;;;2.90;99.90;;;;;;5076568;28;20532;-50
2022/12/26 00:26:10;;;;;;;1.63;1.03;;;2.50;99.90;;;;;;5076877;28;20461;-50
2022/12/26 00:28:38;;;;;;;2.30;1.30;;;2.60;99.90;;;;;;5077762;28;20476;-50
2022/12/26 00:31:06;;;;;;;5.63;1.30;;;2.90;99.90;;;;;;5077303;28;20509;-49
2022/12/26 00:33:34;;;;;;;1.97;1.77;;;2.90;99.90;;;;;;5076787;28;20484;-50
2022/12/26 00:36:02;;;;;;;1.57;0.90;;;2.90;99.90;;;;;;5076937;28;20805;-50
2022/12/26 00:38:29;;;;;;;1.83;1.30;;;3.00;99.90;;;;;;5076283;28;20451;-51
2022/12/26 00:40:57;;;;;;;1.47;1.30;;;2.90;99.90;;;;;;5076292;28;20556;-52
2022/12/26 00:43:24;;;;;;;2.70;1.47;;;2.70;99.90;;;;;;5076964;28;20469;-50
2022/12/26 00:45:51;;;;;;;1.30;1.20;;;2.60;99.90;;;;;;5076489;28;20520;-50
2022/12/26 00:48:18;;;;;;;2.53;1.70;;;2.80;99.90;;;;;;5076916;28;20546;-50
2022/12/26 00:50:45;;;;;;;3.83;1.87;;;3.00;99.90;;;;;;5076334;28;21048;-50
2022/12/26 00:53:12;;;;;;;2.87;2.40;;;2.90;99.90;;;;;;5057687;28;20489;-49
2022/12/26 00:55:39;;;;;;;1.77;1.43;;;2.80;99.90;;;;;;5072474;28;21031;-50
2022/12/26 00:58:08;;;;;;;2.80;1.50;;;2.90;99.90;;;;;;5073483;28;20533;-49
2022/12/26 01:00:35;;;;;;;1.60;1.20;;;2.90;99.90;;;;;;5071965;28;20971;-50
2022/12/26 01:03:02;;;;;;;5.63;1.93;;;3.20;99.90;;;;;;5072562;28;20532;-50
2022/12/26 01:05:29;;;;;;;2.70;1.87;;;3.20;99.90;;;;;;5071975;28;20528;-49
2022/12/26 01:07:56;;;;;;;2.90;1.70;;;2.90;99.90;;;;;;5071912;28;20523;-50
2022/12/26 01:10:23;;;;;;;3.83;2.67;;;2.60;99.90;;;;;;5072065;28;20558;-50
2022/12/26 01:12:49;;;;;;;3.47;2.23;;;2.20;99.90;;;;;;5071546;28;20465;-50
2022/12/26 01:15:18;;;;;;;2.00;1.57;;;2.00;99.90;;;;;;5073001;28;20465;-50
2022/12/26 01:17:45;;;;;;;2.70;2.27;;;2.30;99.90;;;;;;5071517;28;20977;-49
2022/12/26 01:20:12;;;;;;;3.43;2.73;;;2.30;99.90;;;;;;5072878;28;20627;-51
2022/12/26 01:22:39;;;;;;;4.10;2.40;;;2.10;99.90;;;;;;5071698;28;21107;-50
2022/12/26 01:25:07;;;;;;;2.63;1.80;;;2.20;99.90;;;;;;5071516;28;20528;-51
2022/12/26 01:27:34;;;;;;;6.70;1.70;;;2.30;99.90;;;;;;5061854;28;20473;-50
2022/12/26 01:30:01;;;;;;;1.63;1.50;;;2.40;99.90;;;;;;5071743;28;20532;-49
2022/12/26 01:32:30;;;;;;;2.10;1.70;;;2.60;99.90;;;;;;5071749;28;20852;-50
2022/12/26 01:34:57;;;;;;;1.90;1.70;;;2.60;99.90;;;;;;5071352;28;20473;-49
2022/12/26 01:37:23;;;;;;;2.43;1.97;;;2.50;99.90;;;;;;5072651;28;20477;-51
2022/12/26 01:39:52;;;;;;;1.63;1.53;;;2.50;99.90;;;;;;5072447;28;20536;-50
2022/12/26 01:42:21;;;;;;;1.60;1.27;;;2.70;99.90;;;;;;5068387;28;20527;-50
2022/12/26 01:45:01;;;;;;;3.50;1.80;;;2.80;99.90;;;;;;5072773;28;20516;-49
2022/12/26 01:47:43;;;;;;;3.20;1.60;;;2.80;99.90;;;;;;5071144;28;21029;-53
2022/12/26 01:50:27;;;;;;;1.83;1.60;;;2.60;99.90;;;;;;5071410;28;20536;-50
2022/12/26 01:52:58;;;;;;;2.40;1.80;;;2.40;99.90;;;;;;5070937;28;20488;-49
2022/12/26 01:55:27;;;;;;;2.80;2.60;;;2.10;99.90;;;;;;5071035;28;20508;-49
2022/12/26 01:58:00;;;;;;;3.30;2.30;;;2.10;99.90;;;;;;5070663;28;20451;-50
2022/12/26 02:00:27;;;;;;;2.20;2.00;;;2.20;99.90;;;;;;5070826;28;20502;-50
2022/12/26 02:05:41;;;;;;;1.30;1.20;;;2.60;99.90;;;;;;5071998;28;20479;-50
2022/12/26 02:08:11;;;;;;;2.73;1.93;;;2.40;99.90;;;;;;5072012;28;20469;-50
2022/12/26 02:10:46;;;;;;;3.17;2.47;;;2.70;99.90;;;;;;5070612;28;20558;-49
2022/12/26 02:13:13;;;;;;;2.30;1.80;;;2.70;99.90;;;;;;5070741;28;20523;-49
2022/12/26 02:15:41;;;;;;;2.10;1.50;;;2.60;99.90;;;;;;5070687;28;20505;-50
2022/12/26 02:18:10;;;;;;;1.40;1.27;;;2.70;99.90;;;;;;5070804;28;20473;-49
2022/12/26 02:20:43;;;;;;;1.20;1.00;;;2.50;99.90;;;;;;5070288;28;20508;-52
2022/12/26 02:23:57;;;;;;;1.93;1.73;;;2.60;99.90;;;;;;5070002;28;20530;-49
2022/12/26 02:27:02;;;;;;;2.03;1.20;;;2.50;99.90;;;;;;5058548;28;20473;-50
2022/12/26 02:30:07;;;;;;;1.43;1.17;;;2.50;99.90;;;;;;5067214;28;20479;-50
2022/12/26 02:32:56;;;;;;;3.10;1.40;;;2.70;99.90;;;;;;5071004;28;20535;-49
2022/12/26 02:35:33;;;;;;;1.37;1.27;;;2.80;99.90;;;;;;5062670;28;20533;-51
2022/12/26 02:38:12;;;;;;;1.57;1.47;;;2.70;99.90;;;;;;5052165;28;20434;-50
2022/12/26 02:40:49;;;;;;;1.20;1.10;;;2.80;99.90;;;;;;5067796;28;20551;-51
2022/12/26 02:43:22;;;;;;;1.60;1.13;;;2.80;99.90;;;;;;5051834;28;20562;-52
2022/12/26 02:48:58;;;;;;;2.10;1.50;;;2.30;99.90;;;;;;5034648;28;20424;-50
2022/12/26 03:14:19;;;;;;;1.50;1.20;;;2.40;99.90;;;;;;5071174;28;21019;-50
2022/12/26 03:19:56;;;;;;;2.17;1.50;;;2.20;99.90;;;;;;5056946;28;20432;-50
2022/12/26 03:22:31;;;;;;;2.07;1.53;;;1.90;99.90;;;;;;5063565;28;20468;-49
2022/12/26 03:27:46;;;;;;;2.37;1.30;;;2.20;99.90;;;;;;5069554;28;20435;-49
2022/12/26 03:32:59;;;;;;;1.47;1.03;;;2.30;99.90;;;;;;5069099;28;20439;-49
2022/12/26 03:35:28;;;;;;;1.10;1.00;;;2.40;99.90;;;;;;5077237;28;20532;-50
2022/12/26 03:38:01;;;;;;;2.03;0.97;;;2.20;99.90;;;;;;5070342;28;20806;-51
2022/12/26 04:41:34;;;;;;;2.27;1.20;;;2.50;99.90;;;;;;5068953;28;20846;-49
2022/12/26 04:46:22;;;;;;;1.20;0.87;;;2.60;99.90;;;;;;5071383;28;20431;-51
2022/12/26 04:51:36;;;;;;;2.23;2.03;;;2.10;99.90;;;;;;5072035;28;20467;-51
2022/12/26 04:54:04;;;;;;;2.97;2.07;;;1.80;99.90;;;;;;5072159;28;20464;-50
2022/12/26 04:56:31;;;;;;;1.20;1.03;;;1.90;99.90;;;;;;5072172;28;20472;-50
2022/12/26 04:58:58;;;;;;;1.57;1.20;;;1.90;99.90;;;;;;5071884;28;20530;-50
2022/12/26 05:09:43;;;;;;;1.77;1.53;;;2.20;99.90;;;;;;5072643;28;20565;-52
2022/12/26 05:12:10;;;;;;;3.07;1.40;;;2.00;99.90;;;;;;5073038;28;21024;-49
2022/12/26 05:14:37;;;;;;;2.53;2.10;;;1.80;99.90;;;;;;5073217;28;20540;-49
2022/12/26 05:30:57;;;;;;;3.83;3.00;;;1.90;99.90;;;;;;5071708;28;20857;-49
2022/12/26 05:36:10;;;;;;;2.47;1.60;;;1.50;99.90;;;;;;5071985;28;20615;-50
2022/12/26 05:38:37;;;;;;;2.30;2.10;;;1.90;99.90;;;;;;5072090;28;20542;-49
2022/12/26 05:41:04;;;;;;;5.57;3.00;;;2.00;99.90;;;;;;5071672;28;20473;-50
2022/12/26 05:43:31;;;;;;;4.60;1.93;;;1.80;99.90;;;;;;5072668;28;20531;-49
2022/12/26 05:45:58;;;;;;;3.00;1.80;;;1.70;99.90;;;;;;5073076;28;20472;-49
2022/12/26 05:48:27;;;;;;;6.53;5.13;;;1.80;99.90;;;;;;5072206;28;20524;-51
2022/12/26 05:50:58;;;;;;;9.10;5.43;;;1.80;99.90;;;;;;5073136;28;21081;-50
2022/12/26 05:53:25;;;;;;;4.03;3.27;;;1.80;99.90;;;;;;5072590;28;20494;-49
2022/12/26 05:55:52;;;;;;;3.20;2.10;;;1.20;99.90;;;;;;5072367;28;20528;-50
2022/12/26 05:58:19;;;;;;;1.90;1.70;;;1.30;99.90;;;;;;5072500;28;20533;-49
2022/12/26 06:00:46;;;;;;;6.13;2.00;;;1.50;99.90;;;;;;5071366;28;21032;-49
2022/12/26 06:03:13;;;;;;;1.57;1.40;;;1.50;99.90;;;;;;5070867;28;20477;-50
2022/12/26 06:05:41;;;;;;;2.97;1.73;;;1.40;99.90;;;;;;5071004;28;20522;-50
2022/12/26 06:08:08;;;;;;;4.10;1.93;;;1.30;99.90;;;;;;5070514;28;20528;-49
2022/12/26 06:10:35;;;;;;;1.80;1.40;;;1.30;99.90;;;;;;5069827;28;20460;-51
2022/12/26 06:13:02;;;;;;;3.80;3.40;;;1.40;99.90;;;;;;5070627;28;20533;-49
2022/12/26 06:15:29;;;;;;;5.03;4.53;;;1.30;99.90;;;;;;5070919;28;20540;-50
2022/12/26 06:17:56;;;;;;;7.30;6.60;;;;;;;;;;5071404;28;20468;-49
2022/12/26 06:20:23;;;;;;;4.50;3.70;;;0.50;99.90;;;;;;5071751;28;20540;-51
2022/12/26 06:22:51;;;;;;;3.90;3.50;;;0.80;99.90;;;;;;5071949;28;20495;-50
2022/12/26 06:25:18;;;;;;;6.67;5.90;;;1.00;99.90;;;;;;5071803;28;20473;-50
2022/12/26 06:27:45;;;;;;;13.37;8.70;;;0.90;99.90;;;;;;5071940;28;20469;-49
2022/12/26 06:30:13;;;;;;;12.60;7.17;;;0.50;99.90;;;;;;5072104;28;20523;-50
2022/12/26 06:32:39;;;;;;;31.27;9.30;;;0.40;99.90;;;;;;5071777;28;20850;-49
2022/12/26 06:35:07;;;;;;;55.37;11.60;;;0.50;99.90;;;;;;5071066;28;21012;-49
2022/12/26 06:37:34;;;;;;;24.57;8.17;;;0.50;99.90;;;;;;5071694;28;20556;-49
2022/12/26 06:40:02;;;;;;;5.90;5.00;;;0.30;99.90;;;;;;5069451;28;20528;-49
2022/12/26 06:42:29;;;;;;;5.67;3.87;;;0.30;99.90;;;;;;5071431;28;20499;-49
2022/12/26 06:44:56;;;;;;;5.73;4.00;;;0.90;99.90;;;;;;5071642;28;20445;-49
2022/12/26 06:47:23;;;;;;;4.43;3.90;;;1.10;99.90;;;;;;5071602;28;20520;-51
2022/12/26 06:49:50;;;;;;;5.40;4.73;;;1.20;99.90;;;;;;5052006;28;20529;-49
2022/12/26 06:52:17;;;;;;;5.57;4.90;;;1.10;99.90;;;;;;5070117;28;20546;-49
2022/12/26 06:54:43;;;;;;;7.33;5.80;;;1.00;99.90;;;;;;5070762;28;20938;-49
2022/12/26 06:57:12;;;;;;;8.90;8.00;;;1.10;99.90;;;;;;5071064;28;20887;-49
2022/12/26 06:59:39;;;;;;;13.20;9.10;;;0.90;99.90;;;;;;5071368;28;20445;-49
2022/12/26 07:02:06;;;;;;;11.10;8.70;;;0.80;99.90;;;;;;5071139;28;20559;-49
2022/12/26 07:04:33;;;;;;;8.27;6.47;;;0.80;99.90;;;;;;5069748;28;20472;-50
2022/12/26 07:06:59;;;;;;;7.70;6.37;;;0.80;99.90;;;;;;5063213;28;20524;-49
2022/12/26 07:09:26;;;;;;;9.77;7.60;;;0.90;99.90;;;;;;5069749;28;20551;-49
2022/12/26 07:11:55;;;;;;;14.30;9.17;;;0.80;99.90;;;;;;5069199;28;20544;-51
2022/12/26 07:14:23;;;;;;;21.37;13.00;;;0.70;99.90;;;;;;5068612;28;20934;-49
2022/12/26 07:16:50;;;;;;;17.40;13.10;;;0.50;99.90;;;;;;5069685;28;20560;-49
2022/12/26 07:19:17;;;;;;;21.93;14.30;;;0.50;99.90;;;;;;5070444;28;20433;-51
2022/12/26 07:21:44;;;;;;;17.67;12.87;;;0.70;99.90;;;;;;5070713;28;20531;-50
2022/12/26 07:24:16;;;;;;;7.77;6.00;;;0.50;99.90;;;;;;5070657;28;20437;-52
2022/12/26 07:26:43;;;;;;;7.53;4.80;;;0.80;99.90;;;;;;5072114;28;20459;-49
2022/12/26 07:29:11;;;;;;;8.17;4.73;;;1.00;99.90;;;;;;5079528;28;20548;-52
2022/12/26 07:31:39;;;;;;;3.50;3.20;;;1.00;99.90;;;;;;5078919;28;20467;-50
2022/12/26 07:34:06;;;;;;;4.87;3.40;;;0.90;99.90;;;;;;5075947;28;20476;-49
2022/12/26 07:36:33;;;;;;;4.00;2.97;;;0.80;99.90;;;;;;5078766;28;20488;-49
2022/12/26 07:39:00;;;;;;;3.50;2.63;;;1.00;99.90;;;;;;5074925;28;20519;-51
2022/12/26 07:44:14;;;;;;;2.00;1.47;;;1.60;99.90;;;;;;5079422;28;20427;-49
2022/12/26 07:46:42;;;;;;;8.27;7.47;;;1.90;99.90;;;;;;5076912;28;20480;-51
2022/12/26 07:49:11;;;;;;;7.00;6.13;;;1.70;99.90;;;;;;5078365;28;20482;-51
2022/12/26 07:51:38;;;;;;;11.60;10.43;;;1.30;99.90;;;;;;5079751;28;20457;-49
2022/12/26 07:54:05;;;;;;;5.00;4.50;;;1.30;99.90;;;;;;5078980;28;20523;-50
2022/12/26 07:56:32;;;;;;;6.23;5.17;;;1.30;99.90;;;;;;5080570;28;20459;-49
2022/12/26 07:58:59;;;;;;;8.53;7.77;;;1.60;99.90;;;;;;5081406;28;20950;-50
2022/12/26 08:01:26;;;;;;;7.20;5.90;;;1.40;99.90;;;;;;5077559;28;20874;-50
2022/12/26 08:03:54;;;;;;;9.63;5.80;;;1.40;99.90;;;;;;5080848;28;20481;-49
2022/12/26 08:06:21;;;;;;;15.57;10.10;;;1.70;99.90;;;;;;5083815;28;20519;-49
2022/12/26 08:08:48;;;;;;;15.53;13.23;;;1.70;99.90;;;;;;5083076;28;20474;-50
2022/12/26 08:11:17;;;;;;;15.43;12.60;;;1.50;99.90;;;;;;5085192;28;20539;-48
2022/12/26 08:13:44;;;;;;;9.53;8.00;;;1.50;99.90;;;;;;5083015;28;20472;-50
2022/12/26 08:16:13;;;;;;;10.50;9.33;;;1.40;99.90;;;;;;5081687;28;20445;-49
2022/12/26 08:18:40;;;;;;;9.83;8.87;;;1.40;99.90;;;;;;5083084;28;20477;-50
2022/12/26 08:21:08;;;;;;;9.80;8.17;;;1.70;99.90;;;;;;5085137;28;20550;-50
2022/12/26 08:23:35;;;;;;;8.37;7.33;;;1.60;99.90;;;;;;5084753;28;20524;-49
2022/12/26 08:26:05;;;;;;;19.60;15.57;;;1.50;99.90;;;;;;5083094;28;20468;-49
2022/12/26 08:28:32;;;;;;;35.47;28.43;;;1.70;99.90;;;;;;5084475;28;20871;-49
2022/12/26 08:30:59;;;;;;;14.77;10.63;;;1.80;99.90;;;;;;5084972;28;20488;-51
2022/12/26 08:33:26;;;;;;;6.47;5.87;;;2.10;99.90;;;;;;5083615;28;20440;-49
2022/12/26 08:35:53;;;;;;;7.60;6.90;;;2.20;99.90;;;;;;5081810;28;20440;-49
2022/12/26 08:38:21;;;;;;;7.97;6.97;;;2.20;99.90;;;;;;5083143;28;20563;-50
2022/12/26 08:40:55;;;;;;;8.70;7.67;;;2.10;99.90;;;;;;5077390;28;20525;-49
2022/12/26 08:43:23;;;;;;;9.03;8.13;;;1.90;99.90;;;;;;5081502;28;20436;-51
2022/12/26 08:45:57;;;;;;;6.50;5.77;;;1.80;99.90;;;;;;5081593;28;20447;-49
2022/12/26 08:48:24;;;;;;;4.43;4.03;;;1.80;99.90;;;;;;5081958;28;20463;-52
2022/12/26 08:50:56;;;;;;;15.80;14.43;;;2.10;99.90;;;;;;5083231;28;20538;-49
2022/12/26 08:53:25;;;;;;;14.23;13.10;;;2.30;99.90;;;;;;5084852;28;20805;-50
2022/12/26 08:55:52;;;;;;;8.03;7.27;;;2.50;99.90;;;;;;5083443;28;20476;-50
2022/12/26 08:58:19;;;;;;;8.50;7.10;;;2.30;99.90;;;;;;5082660;28;20507;-50
2022/12/26 09:00:46;;;;;;;10.70;9.57;;;2.20;99.90;;;;;;5079774;28;20543;-49
2022/12/26 09:03:14;;;;;;;16.73;13.37;;;2.10;99.90;;;;;;5083811;28;20469;-50
2022/12/26 09:05:41;;;;;;;15.67;12.47;;;1.80;99.90;;;;;;5082302;28;20958;-51
2022/12/26 09:08:08;;;;;;;8.77;7.87;;;1.60;99.90;;;;;;5084333;28;20511;-50
2022/12/26 09:10:37;;;;;;;8.47;7.30;;;1.80;99.90;;;;;;5078954;28;20483;-49
2022/12/26 09:13:04;;;;;;;7.27;6.50;;;2.00;99.90;;;;;;5073345;28;20456;-51
2022/12/26 09:15:30;;;;;;;12.27;10.97;;;2.00;99.90;;;;;;5072129;28;20476;-50
2022/12/26 09:17:57;;;;;;;21.67;14.53;;;2.00;99.90;;;;;;5072977;28;20516;-49
2022/12/26 09:20:24;;;;;;;12.20;10.00;;;2.10;99.90;;;;;;5073404;28;20553;-51
2022/12/26 09:22:51;;;;;;;8.73;7.93;;;2.30;99.90;;;;;;5072945;28;20479;-46
2022/12/26 09:25:19;;;;;;;8.37;7.37;;;2.40;99.90;;;;;;5073253;28;20445;-50
2022/12/26 09:27:48;;;;;;;12.70;10.63;;;2.50;99.90;;;;;;5072468;28;20461;-50
2022/12/26 09:30:16;;;;;;;20.70;18.20;;;2.50;99.90;;;;;;5072015;28;20456;-50
2022/12/26 09:32:43;;;;;;;15.60;12.20;;;1.80;99.90;;;;;;5071574;28;20469;-49
2022/12/26 09:35:10;;;;;;;10.60;9.50;;;1.70;99.90;;;;;;5071263;28;20528;-50
2022/12/26 09:37:37;;;;;;;15.00;12.60;;;1.80;99.90;;;;;;5071802;28;20551;-50
2022/12/26 09:40:05;;;;;;;15.50;14.00;;;1.80;99.90;;;;;;5073357;28;20531;-51
2022/12/26 09:42:41;;;;;;;14.97;13.20;;;1.50;99.90;;;;;;5082385;28;20436;-49
2022/12/26 09:45:14;;;;;;;15.40;13.73;;;1.30;99.90;;;;;;5078294;28;20483;-52
2022/12/26 09:47:49;;;;;;;17.50;13.87;;;1.50;99.90;;;;;;5073309;28;20469;-51
2022/12/26 09:50:28;;;;;;;13.40;12.10;;;1.70;99.90;;;;;;5073218;28;20491;-49
2022/12/26 09:52:56;;;;;;;20.63;18.43;;;1.70;99.90;;;;;;5072607;28;20452;-50
2022/12/26 09:55:42;;;;;;;22.23;17.70;;;1.60;99.90;;;;;;5068306;28;20456;-49
2022/12/26 09:58:21;;;;;;;14.50;13.03;;;1.60;99.90;;;;;;5069312;28;20575;-51
2022/12/26 10:00:52;;;;;;;9.53;8.50;;;1.80;99.90;;;;;;5069078;28;20514;-51
2022/12/26 10:03:19;;;;;;;9.60;7.50;;;2.00;99.90;;;;;;5068598;28;20485;-51
2022/12/26 10:06:03;;;;;;;5.97;5.47;;;2.30;99.90;;;;;;5068249;28;20827;-49
2022/12/26 10:09:01;;;;;;;11.07;8.57;;;2.10;99.90;;;;;;5068690;28;20524;-51
2022/12/26 10:11:39;;;;;;;14.87;13.20;;;1.90;99.90;;;;;;5068260;28;21028;-51
2022/12/26 10:14:15;;;;;;;13.23;12.00;;;1.80;99.90;;;;;;5067823;28;20539;-51
2022/12/26 10:16:53;;;;;;;10.50;9.40;;;1.80;99.90;;;;;;5068970;28;20437;-50
2022/12/26 10:19:38;;;;;;;10.33;9.23;;;2.00;99.90;;;;;;5068509;28;20468;-49
2022/12/26 10:22:34;;;;;;;11.47;10.17;;;2.30;99.90;;;;;;5068712;28;20551;-51
2022/12/26 10:25:04;;;;;;;15.00;13.07;;;2.30;99.90;;;;;;5065898;28;20880;-50
2022/12/26 10:27:38;;;;;;;14.63;12.90;;;2.30;99.90;;;;;;5079441;28;20885;-50
2022/12/26 10:30:07;;;;;;;9.87;8.90;;;2.40;99.90;;;;;;5082970;28;20473;-52
2022/12/26 10:32:41;;;;;;;9.97;9.03;;;2.50;99.90;;;;;;5068135;28;20460;-48
2022/12/26 10:35:20;;;;;;;16.73;15.13;;;2.70;99.90;;;;;;5067457;28;20544;-50
2022/12/26 10:37:49;;;;;;;10.37;9.47;;;2.80;99.90;;;;;;5071895;28;21022;-51
2022/12/26 10:40:21;;;;;;;9.50;8.30;;;2.70;99.90;;;;;;5079641;28;20444;-50
2022/12/26 10:42:52;;;;;;;5.30;4.87;;;2.90;99.90;;;;;;5089002;28;20440;-51
2022/12/26 10:45:27;;;;;;;5.10;4.70;;;3.00;99.90;;;;;;5070779;28;20477;-50
2022/12/26 10:47:56;;;;;;;7.93;5.50;;;3.10;99.90;;;;;;5068821;28;20477;-51
2022/12/26 10:50:26;;;;;;;11.57;8.80;;;3.30;99.90;;;;;;5068620;28;21044;-50
2022/12/26 10:52:54;;;;;;;15.67;14.07;;;3.40;99.90;;;;;;5067641;28;20518;-51
2022/12/26 10:55:29;;;;;;;13.50;12.10;;;3.50;99.90;;;;;;5071701;28;20878;-51
2022/12/26 10:58:00;;;;;;;12.70;10.80;;;3.40;99.90;;;;;;5070174;28;20562;-51
2022/12/26 11:00:28;;;;;;;14.77;13.30;;;3.40;99.90;;;;;;5067400;28;20545;-50
2022/12/26 11:03:08;;;;;;;15.83;12.70;;;3.50;99.90;;;;;;5067125;28;20529;-54
2022/12/26 11:05:37;;;;;;;8.10;7.30;;;3.30;99.90;;;;;;5067172;28;20566;-53
2022/12/26 11:08:15;;;;;;;8.90;7.30;;;3.30;99.90;;;;;;5067650;28;20524;-49
2022/12/26 11:10:48;;;;;;;8.20;6.80;;;3.40;99.90;;;;;;5068873;28;20553;-49
2022/12/26 11:13:20;;;;;;;8.63;7.60;;;3.60;99.90;;;;;;5048116;28;20538;-49
2022/12/26 11:15:49;;;;;;;10.30;8.10;;;3.60;99.90;;;;;;5048191;28;20538;-51
2022/12/26 11:18:22;;;;;;;10.80;9.57;;;3.70;99.90;;;;;;5047194;28;20558;-50
2022/12/26 11:20:50;;;;;;;10.50;9.40;;;3.90;99.90;;;;;;5047213;28;20546;-50
2022/12/26 11:23:26;;;;;;;10.30;9.30;;;3.80;99.90;;;;;;5046705;28;20542;-50
2022/12/26 11:25:54;;;;;;;9.33;8.40;;;3.70;99.90;;;;;;5066332;28;20491;-49
2022/12/26 11:28:28;;;;;;;10.97;9.60;;;3.60;99.90;;;;;;5081364;28;20442;-49
2022/12/26 11:30:56;;;;;;;13.50;10.37;;;3.50;99.90;;;;;;5087067;28;20545;-50
2022/12/26 11:33:29;;;;;;;13.00;11.60;;;3.70;99.90;;;;;;5069805;28;20525;-50
2022/12/26 11:36:08;;;;;;;13.60;10.80;;;3.80;99.90;;;;;;5067712;28;20476;-52
2022/12/26 11:38:45;;;;;;;12.27;10.97;;;3.90;99.90;;;;;;5067440;28;20976;-51
2022/12/26 11:41:35;;;;;;;17.27;12.87;;;3.90;99.90;;;;;;5067585;28;20513;-50
2022/12/26 11:44:19;;;;;;;25.30;16.50;;;4.10;99.90;;;;;;5067916;28;20446;-49
2022/12/26 11:46:49;;;;;;;19.30;16.70;;;4.20;99.90;;;;;;5064713;28;20504;-51
2022/12/26 11:49:23;;;;;;;16.60;14.10;;;4.20;99.90;;;;;;5066846;28;20962;-50
2022/12/26 11:51:51;;;;;;;17.33;14.70;;;4.30;99.90;;;;;;5066939;28;20470;-50
2022/12/26 11:54:25;;;;;;;12.80;11.70;;;4.30;99.90;;;;;;5048887;28;21035;-51
2022/12/26 11:57:12;;;;;;;11.50;10.40;;;4.40;99.90;;;;;;5076988;28;20456;-50
2022/12/26 11:59:39;;;;;;;11.80;10.30;;;4.50;99.90;;;;;;5067539;28;21090;-50
2022/12/26 12:02:24;;;;;;;11.60;10.40;;;4.50;99.90;;;;;;5067928;28;20861;-50
2022/12/26 12:04:55;;;;;;;8.63;7.80;;;4.60;99.90;;;;;;5067732;28;20541;-50
2022/12/26 12:07:42;;;;;;;8.43;7.57;;;4.70;99.90;;;;;;5067958;28;20589;-49
2022/12/26 12:10:46;;;;;;;8.47;6.77;;;4.70;99.90;;;;;;5067681;28;20530;-49
2022/12/26 12:13:28;;;;;;;7.30;6.70;;;4.70;99.90;;;;;;5067265;28;20477;-50
2022/12/26 12:16:01;;;;;;;8.50;7.63;;;4.70;99.90;;;;;;5065389;28;20542;-53
2022/12/26 12:18:37;;;;;;;7.53;6.80;;;4.70;99.90;;;;;;5067868;28;20488;-51
2022/12/26 12:21:15;;;;;;;8.70;7.90;;;4.70;99.90;;;;;;5067401;28;20906;-52
2022/12/26 12:23:56;;;;;;;9.23;7.70;;;4.90;99.90;;;;;;5067440;28;20478;-49
2022/12/26 12:26:30;;;;;;;5.93;5.03;;;4.90;99.90;;;;;;5076128;28;20558;-49
2022/12/26 12:29:32;;;;;;;7.93;6.97;;;5.00;99.90;;;;;;5085715;28;20474;-51
2022/12/26 12:32:08;;;;;;;9.07;8.17;;;5.00;99.90;;;;;;5087787;28;21111;-48
2022/12/26 12:35:09;;;;;;;9.00;8.10;;;5.10;99.90;;;;;;5075039;28;20448;-50
2022/12/26 12:38:02;;;;;;;6.00;5.30;;;5.20;99.90;;;;;;5047609;28;21174;-51
2022/12/26 12:40:37;;;;;;;6.20;5.60;;;5.30;99.90;;;;;;5065708;28;20550;-50
2022/12/26 12:43:14;;;;;;;10.00;9.00;;;5.50;99.90;;;;;;5066624;28;20530;-50
2022/12/26 12:45:51;;;;;;;6.87;5.70;;;5.70;99.90;;;;;;5066579;28;20510;-52
2022/12/26 12:48:44;;;;;;;6.83;5.20;;;5.70;99.90;;;;;;5066865;28;20467;-50
2022/12/26 12:51:23;;;;;;;5.50;4.73;;;5.60;99.90;;;;;;5069790;28;20946;-50
2022/12/26 12:54:35;;;;;;;7.00;5.70;;;5.50;99.90;;;;;;5070980;28;20531;-50
2022/12/26 12:57:11;;;;;;;7.43;5.23;;;5.50;99.90;;;;;;5066158;28;21006;-49
2022/12/26 12:59:51;;;;;;;11.30;7.63;;;5.60;99.90;;;;;;5079582;28;20503;-52
2022/12/26 13:02:31;;;;;;;6.60;6.00;;;5.60;99.90;;;;;;5068111;28;20562;-52
2022/12/26 13:05:05;;;;;;;10.13;6.23;;;5.80;99.90;;;;;;5069309;28;20519;-50
2022/12/26 13:07:38;;;;;;;7.70;6.77;;;5.90;99.90;;;;;;5070365;28;20986;-49
2022/12/26 13:10:12;;;;;;;5.80;5.03;;;6.10;99.90;;;;;;5070429;28;20518;-49
2022/12/26 13:12:44;;;;;;;7.67;6.60;;;6.20;99.90;;;;;;5071023;28;20469;-49
2022/12/26 13:15:31;;;;;;;8.10;7.30;;;6.20;99.90;;;;;;5070593;28;20530;-50
2022/12/26 13:18:03;;;;;;;8.77;7.97;;;6.20;99.90;;;;;;5071696;28;20867;-50
2022/12/26 13:20:38;;;;;;;7.43;6.73;;;6.20;99.90;;;;;;5070500;28;20518;-50
2022/12/26 13:26:04;;;;;;;6.23;5.60;;;6.20;99.90;;;;;;5077843;28;20447;-50
2022/12/26 13:28:37;;;;;;;9.07;6.30;;;6.30;99.90;;;;;;5079835;28;20516;-53
2022/12/26 13:31:05;;;;;;;6.63;5.27;;;6.40;99.90;;;;;;5069169;28;20507;-49
2022/12/26 13:33:32;;;;;;;7.53;5.87;;;6.50;99.90;;;;;;5068951;28;20924;-50
2022/12/26 13:36:00;;;;;;;7.80;6.13;;;6.50;99.90;;;;;;5069652;28;20997;-50
2022/12/26 13:39:15;;;;;;;7.20;5.80;;;6.50;99.90;;;;;;5065791;28;20541;-49
2022/12/26 13:44:33;;;;;;;6.50;5.53;;;6.30;99.90;;;;;;5072035;28;20423;-49
2022/12/26 13:47:00;;;;;;;9.10;7.50;;;6.20;99.90;;;;;;5069078;28;21012;-49
2022/12/26 13:49:34;;;;;;;10.50;8.07;;;6.20;99.90;;;;;;5069170;28;20938;-49
2022/12/26 13:52:33;;;;;;;10.47;9.07;;;6.20;99.90;;;;;;5069525;28;20513;-47
2022/12/26 13:55:29;;;;;;;8.47;7.17;;;6.20;99.90;;;;;;5070093;28;20445;-50
2022/12/26 13:58:31;;;;;;;8.27;7.00;;;6.20;99.90;;;;;;5080627;28;20440;-49
2022/12/26 14:01:08;;;;;;;6.87;5.40;;;6.20;99.90;;;;;;5070619;28;20490;-49
2022/12/26 14:03:58;;;;;;;4.47;4.07;;;6.10;99.90;;;;;;5068659;28;20495;-49
2022/12/26 14:06:43;;;;;;;5.50;4.07;;;6.20;99.90;;;;;;5062510;28;20468;-51
2022/12/26 14:09:22;;;;;;;9.10;7.63;;;6.40;99.90;;;;;;5066340;28;20527;-51
2022/12/26 14:12:08;;;;;;;13.13;10.00;;;6.30;99.90;;;;;;5066047;28;20437;-48
2022/12/26 14:14:47;;;;;;;8.50;7.53;;;6.30;99.90;;;;;;5069236;28;20530;-48
2022/12/26 14:17:25;;;;;;;73.93;51.30;;;6.40;99.90;;;;;;5061391;28;20941;-49
2022/12/26 14:20:01;;;;;;;10.70;7.70;;;6.20;99.90;;;;;;5066385;28;20582;-49
2022/12/26 14:22:38;;;;;;;6.30;5.70;;;5.90;99.90;;;;;;5069552;28;20476;-52
2022/12/26 14:25:16;;;;;;;6.00;5.40;;;6.10;99.90;;;;;;5073409;28;20471;-49
2022/12/26 14:27:49;;;;;;;4.93;4.53;;;6.10;99.90;;;;;;5069960;28;20447;-50
2022/12/26 14:30:24;;;;;;;4.00;3.60;;;6.00;99.90;;;;;;5068199;28;20535;-50
2022/12/26 14:33:05;;;;;;;6.23;5.10;;;6.00;99.90;;;;;;5067499;28;20492;-52
2022/12/26 14:35:37;;;;;;;6.03;5.43;;;6.00;99.90;;;;;;5073122;28;20480;-51
2022/12/26 14:38:20;;;;;;;8.53;6.40;;;5.90;99.90;;;;;;5068060;28;20487;-51
2022/12/26 14:40:59;;;;;;;6.03;5.43;;;5.40;99.90;;;;;;5069006;28;20487;-51
2022/12/26 14:43:34;;;;;;;6.10;5.60;;;5.30;99.90;;;;;;5068938;28;20474;-49
2022/12/26 14:46:05;;;;;;;5.00;3.80;;;5.40;99.90;;;;;;5068767;28;20898;-49
2022/12/26 14:48:48;;;;;;;4.00;3.40;;;5.40;99.90;;;;;;5067338;28;20486;-50
2022/12/26 14:51:38;;;;;;;4.37;3.40;;;5.90;99.90;;;;;;5065807;28;20495;-49
2022/12/26 14:54:45;;;;;;;4.33;3.67;;;6.10;99.90;;;;;;5068215;28;20455;-49
2022/12/26 14:57:47;;;;;;;7.47;6.00;;;5.90;99.90;;;;;;5078344;28;20598;-51
2022/12/26 15:00:34;;;;;;;6.60;5.07;;;5.60;99.90;;;;;;5068336;28;20510;-48
2022/12/26 15:03:40;;;;;;;15.23;10.53;;;5.60;99.90;;;;;;5069147;28;20933;-51
2022/12/26 15:06:43;;;;;;;8.67;6.47;;;5.40;99.90;;;;;;5067180;28;20611;-51
2022/12/26 15:09:39;;;;;;;8.00;6.93;;;5.20;99.90;;;;;;5063773;28;20922;-49
2022/12/26 15:12:36;;;;;;;10.37;7.40;;;5.20;99.90;;;;;;5064459;28;21078;-49
2022/12/26 15:15:28;;;;;;;10.43;8.37;;;5.30;99.90;;;;;;5064132;28;20521;-49
2022/12/26 15:18:25;;;;;;;5.87;5.37;;;5.20;99.90;;;;;;5066088;28;20489;-49
2022/12/26 15:21:09;;;;;;;5.03;4.53;;;5.50;99.90;;;;;;5066485;28;20557;-49
2022/12/26 15:23:59;;;;;;;8.47;5.57;;;5.50;99.90;;;;;;5066897;28;20537;-52
2022/12/26 15:27:20;;;;;;;8.60;6.67;;;5.40;99.90;;;;;;5068981;28;20528;-51
2022/12/26 15:30:06;;;;;;;8.13;5.70;;;5.20;99.90;;;;;;4986174;28;21028;-49
2022/12/26 15:32:39;;;;;;;5.47;4.97;;;5.40;99.90;;;;;;5038841;28;20459;-51
2022/12/26 15:35:16;;;;;;;6.50;5.20;;;5.60;99.90;;;;;;5053233;28;20474;-49
2022/12/26 15:38:06;;;;;;;6.93;6.23;;;5.50;99.90;;;;;;5068397;28;20530;-52
2022/12/26 15:40:37;;;;;;;6.17;5.57;;;5.40;99.90;;;;;;5066228;28;20566;-49
2022/12/26 15:43:34;;;;;;;6.20;5.10;;;5.30;99.90;;;;;;5068033;28;20475;-49